sensor_id;sensor_type;location;lat;lon;timestamp;temperature;humidity
11093;DHT22;5600;50.864;6.102;2023-03-01T00:02:22;-0.40;99.90
11093;DHT22;5600;50.864;6.102;2023-03-01T00:05:22;-0.60;99.90
11093;DHT22;5600;50.864;6.102;2023-03-01T00:08:24;-0.70;99.90
11093;DHT22;5600;50.864;6.102;2023-03-01T00:11:28;-0.70;99.90
11093;DHT22;5600;50.864;6.102;2023-03-01T00:14:29;-0.80;99.90
11093;DHT22;5600;50.864;6.102;2023-03-01T00:17:29;-0.90;99.90
11093;DHT22;5600;50.864;6.102;2023-03-01T00:20:30;-0.80;99.90
11093;DHT22;5600;50.864;6.102;2023-03-01T00:23:31;-0.80;99.90
11093;DHT22;5600;50.864;6.102;2023-03-01T00:26:33;-0.90;99.90
11093;DHT22;5600;50.864;6.102;2023-03-01T00:29:34;-1.50;99.90
11093;DHT22;5600;50.864;6.102;2023-03-01T00:32:35;-1.20;99.90
11093;DHT22;5600;50.864;6.102;2023-03-01T00:35:36;-1.30;99.90
11093;DHT22;5600;50.864;6.102;2023-03-01T00:38:38;-1.50;99.90
11093;DHT22;5600;50.864;6.102;2023-03-01T00:41:39;-1.50;99.90
11093;DHT22;5600;50.864;6.102;2023-03-01T00:44:40;-1.40;99.90
11093;DHT22;5600;50.864;6.102;2023-03-01T00:47:41;-1.30;99.90
11093;DHT22;5600;50.864;6.102;2023-03-01T00:50:41;-1.30;99.90
11093;DHT22;5600;50.864;6.102;2023-03-01T00:53:43;-1.40;99.90
11093;DHT22;5600;50.864;6.102;2023-03-01T00:56:44;-1.20;99.90
11093;DHT22;5600;50.864;6.102;2023-03-01T00:59:45;-1.30;99.90
11093;DHT22;5600;50.864;6.102;2023-03-01T01:05:47;-1.50;99.90
11093;DHT22;5600;50.864;6.102;2023-03-01T01:08:48;-1.60;99.90
11093;DHT22;5600;50.864;6.102;2023-03-01T01:11:50;-1.70;99.90
11093;DHT22;5600;50.864;6.102;2023-03-01T01:14:51;-1.60;99.90
11093;DHT22;5600;50.864;6.102;2023-03-01T01:17:52;-1.50;99.90
11093;DHT22;5600;50.864;6.102;2023-03-01T01:20:53;-1.40;99.90
11093;DHT22;5600;50.864;6.102;2023-03-01T01:23:55;-1.30;99.90
11093;DHT22;5600;50.864;6.102;2023-03-01T01:26:56;-1.40;99.90
11093;DHT22;5600;50.864;6.102;2023-03-01T01:29:57;-1.40;99.90
11093;DHT22;5600;50.864;6.102;2023-03-01T01:32:58;-1.40;99.90
11093;DHT22;5600;50.864;6.102;2023-03-01T01:38:59;-1.30;99.90
11093;DHT22;5600;50.864;6.102;2023-03-01T01:42:01;-1.40;99.90
11093;DHT22;5600;50.864;6.102;2023-03-01T01:45:32;-1.60;99.90
11093;DHT22;5600;50.864;6.102;2023-03-01T01:48:42;-1.70;99.90
11093;DHT22;5600;50.864;6.102;2023-03-01T01:51:45;-1.60;99.90
11093;DHT22;5600;50.864;6.102;2023-03-01T01:55:02;-1.50;99.90
11093;DHT22;5600;50.864;6.102;2023-03-01T01:58:06;-1.60;99.90
11093;DHT22;5600;50.864;6.102;2023-03-01T02:01:07;-1.50;99.90
11093;DHT22;5600;50.864;6.102;2023-03-01T02:04:08;-1.60;99.90
11093;DHT22;5600;50.864;6.102;2023-03-01T02:07:20;-1.60;99.90
11093;DHT22;5600;50.864;6.102;2023-03-01T02:10:23;-1.70;99.90
11093;DHT22;5600;50.864;6.102;2023-03-01T02:13:25;-1.90;99.90
11093;DHT22;5600;50.864;6.102;2023-03-01T02:16:26;-1.80;99.90
11093;DHT22;5600;50.864;6.102;2023-03-01T02:22:40;-1.90;99.90
11093;DHT22;5600;50.864;6.102;2023-03-01T02:26:11;-1.90;99.90
11093;DHT22;5600;50.864;6.102;2023-03-01T02:29:16;-1.90;99.90
11093;DHT22;5600;50.864;6.102;2023-03-01T02:32:18;-2.20;99.90
11093;DHT22;5600;50.864;6.102;2023-03-01T02:35:25;-2.30;99.90
11093;DHT22;5600;50.864;6.102;2023-03-01T02:38:26;-2.40;99.90
11093;DHT22;5600;50.864;6.102;2023-03-01T02:41:30;-3.20;99.90
11093;DHT22;5600;50.864;6.102;2023-03-01T02:44:31;-2.60;99.90
11093;DHT22;5600;50.864;6.102;2023-03-01T02:47:32;-2.70;99.90
11093;DHT22;5600;50.864;6.102;2023-03-01T02:50:55;-2.90;99.90
11093;DHT22;5600;50.864;6.102;2023-03-01T02:54:12;-3.00;99.90
11093;DHT22;5600;50.864;6.102;2023-03-01T02:57:18;-3.00;99.90
11093;DHT22;5600;50.864;6.102;2023-03-01T03:00:25;-3.00;99.90
11093;DHT22;5600;50.864;6.102;2023-03-01T03:09:29;-3.30;99.90
11093;DHT22;5600;50.864;6.102;2023-03-01T03:15:32;-3.30;99.90
11093;DHT22;5600;50.864;6.102;2023-03-01T03:18:36;-3.20;99.90
11093;DHT22;5600;50.864;6.102;2023-03-01T03:21:37;-3.10;99.90
11093;DHT22;5600;50.864;6.102;2023-03-01T03:27:40;-3.30;99.90
11093;DHT22;5600;50.864;6.102;2023-03-01T03:30:43;-3.50;99.90
11093;DHT22;5600;50.864;6.102;2023-03-01T03:33:43;-3.20;99.90
11093;DHT22;5600;50.864;6.102;2023-03-01T03:36:44;-3.20;99.90
11093;DHT22;5600;50.864;6.102;2023-03-01T03:39:45;-2.90;99.90
11093;DHT22;5600;50.864;6.102;2023-03-01T03:42:45;-2.80;99.90
11093;DHT22;5600;50.864;6.102;2023-03-01T03:45:47;-2.70;99.90
11093;DHT22;5600;50.864;6.102;2023-03-01T03:51:50;-2.60;99.90
11093;DHT22;5600;50.864;6.102;2023-03-01T03:54:51;-2.70;99.90
11093;DHT22;5600;50.864;6.102;2023-03-01T04:00:56;-2.60;99.90
11093;DHT22;5600;50.864;6.102;2023-03-01T04:10:07;-3.20;99.90
11093;DHT22;5600;50.864;6.102;2023-03-01T04:13:11;-3.10;99.90
11093;DHT22;5600;50.864;6.102;2023-03-01T04:19:13;-3.00;99.90
11093;DHT22;5600;50.864;6.102;2023-03-01T04:25:19;-2.80;99.90
11093;DHT22;5600;50.864;6.102;2023-03-01T04:28:27;-2.80;99.90
11093;DHT22;5600;50.864;6.102;2023-03-01T04:34:29;-2.80;99.90
11093;DHT22;5600;50.864;6.102;2023-03-01T04:37:30;-2.80;99.90
11093;DHT22;5600;50.864;6.102;2023-03-01T04:40:32;-3.00;99.90
11093;DHT22;5600;50.864;6.102;2023-03-01T04:49:35;-2.90;99.90
11093;DHT22;5600;50.864;6.102;2023-03-01T04:55:37;-2.90;99.90
11093;DHT22;5600;50.864;6.102;2023-03-01T05:01:39;-3.10;99.90
11093;DHT22;5600;50.864;6.102;2023-03-01T05:10:50;-3.10;99.90
11093;DHT22;5600;50.864;6.102;2023-03-01T05:20:04;-3.30;99.90
11093;DHT22;5600;50.864;6.102;2023-03-01T05:23:09;-3.20;99.90
11093;DHT22;5600;50.864;6.102;2023-03-01T05:35:17;-3.20;99.90
11093;DHT22;5600;50.864;6.102;2023-03-01T05:38:19;-3.30;99.90
11093;DHT22;5600;50.864;6.102;2023-03-01T05:44:21;-3.40;99.90
11093;DHT22;5600;50.864;6.102;2023-03-01T05:50:25;-3.40;99.90
11093;DHT22;5600;50.864;6.102;2023-03-01T06:05:31;-3.60;99.90
11093;DHT22;5600;50.864;6.102;2023-03-01T06:11:34;-3.40;99.90
11093;DHT22;5600;50.864;6.102;2023-03-01T06:17:38;-3.40;99.90
11093;DHT22;5600;50.864;6.102;2023-03-01T06:26:43;-3.30;99.90
11093;DHT22;5600;50.864;6.102;2023-03-01T06:35:46;-3.40;99.90
11093;DHT22;5600;50.864;6.102;2023-03-01T06:41:48;-3.60;99.90
11093;DHT22;5600;50.864;6.102;2023-03-01T06:44:49;-3.50;99.90
11093;DHT22;5600;50.864;6.102;2023-03-01T06:47:50;-3.40;99.90
11093;DHT22;5600;50.864;6.102;2023-03-01T06:56:53;-3.30;99.90
11093;DHT22;5600;50.864;6.102;2023-03-01T07:02:58;-3.50;99.90
11093;DHT22;5600;50.864;6.102;2023-03-01T07:05:59;-3.50;99.90
11093;DHT22;5600;50.864;6.102;2023-03-01T07:08:59;-3.30;99.90
11093;DHT22;5600;50.864;6.102;2023-03-01T07:12:01;-3.30;99.90
11093;DHT22;5600;50.864;6.102;2023-03-01T07:18:03;-3.30;99.90
11093;DHT22;5600;50.864;6.102;2023-03-01T07:21:06;-3.20;99.90
11093;DHT22;5600;50.864;6.102;2023-03-01T07:24:08;-2.90;99.90
11093;DHT22;5600;50.864;6.102;2023-03-01T07:30:10;-2.60;99.90
11093;DHT22;5600;50.864;6.102;2023-03-01T07:33:11;-2.60;99.90
11093;DHT22;5600;50.864;6.102;2023-03-01T07:36:12;-2.50;99.90
11093;DHT22;5600;50.864;6.102;2023-03-01T07:39:12;-2.30;99.90
11093;DHT22;5600;50.864;6.102;2023-03-01T07:42:13;-1.90;99.90
11093;DHT22;5600;50.864;6.102;2023-03-01T07:45:14;-1.40;99.90
11093;DHT22;5600;50.864;6.102;2023-03-01T07:48:15;-1.30;99.90
11093;DHT22;5600;50.864;6.102;2023-03-01T07:51:15;-0.80;99.90
11093;DHT22;5600;50.864;6.102;2023-03-01T07:54:16;-0.20;99.90
11093;DHT22;5600;50.864;6.102;2023-03-01T07:57:18;0.40;99.90
11093;DHT22;5600;50.864;6.102;2023-03-01T08:00:19;1.20;99.90
11093;DHT22;5600;50.864;6.102;2023-03-01T08:03:20;2.00;99.90
11093;DHT22;5600;50.864;6.102;2023-03-01T08:06:21;2.20;99.90
11093;DHT22;5600;50.864;6.102;2023-03-01T08:09:22;2.90;99.90
11093;DHT22;5600;50.864;6.102;2023-03-01T08:12:23;3.50;99.90
11093;DHT22;5600;50.864;6.102;2023-03-01T08:15:23;4.00;99.90
11093;DHT22;5600;50.864;6.102;2023-03-01T08:18:25;4.80;99.90
11093;DHT22;5600;50.864;6.102;2023-03-01T08:21:25;5.50;99.90
11093;DHT22;5600;50.864;6.102;2023-03-01T08:24:26;5.90;99.90
11093;DHT22;5600;50.864;6.102;2023-03-01T08:27:27;6.40;99.90
11093;DHT22;5600;50.864;6.102;2023-03-01T08:30:28;6.80;99.90
11093;DHT22;5600;50.864;6.102;2023-03-01T08:33:29;6.90;99.90
11093;DHT22;5600;50.864;6.102;2023-03-01T08:36:34;7.40;99.90
11093;DHT22;5600;50.864;6.102;2023-03-01T08:39:35;7.50;99.90
11093;DHT22;5600;50.864;6.102;2023-03-01T08:42:37;7.80;99.90
11093;DHT22;5600;50.864;6.102;2023-03-01T08:45:37;8.00;99.90
11093;DHT22;5600;50.864;6.102;2023-03-01T08:48:38;7.70;99.90
11093;DHT22;5600;50.864;6.102;2023-03-01T08:51:40;7.60;99.90
11093;DHT22;5600;50.864;6.102;2023-03-01T08:54:40;7.20;99.90
11093;DHT22;5600;50.864;6.102;2023-03-01T08:57:41;6.70;99.90
11093;DHT22;5600;50.864;6.102;2023-03-01T09:00:42;6.40;99.90
11093;DHT22;5600;50.864;6.102;2023-03-01T09:03:43;6.30;99.90
11093;DHT22;5600;50.864;6.102;2023-03-01T09:06:45;6.30;99.90
11093;DHT22;5600;50.864;6.102;2023-03-01T09:09:46;5.90;99.90
11093;DHT22;5600;50.864;6.102;2023-03-01T09:12:47;6.00;99.90
11093;DHT22;5600;50.864;6.102;2023-03-01T09:15:48;5.90;99.90
11093;DHT22;5600;50.864;6.102;2023-03-01T09:18:53;6.30;99.90
11093;DHT22;5600;50.864;6.102;2023-03-01T09:21:54;6.40;99.90
11093;DHT22;5600;50.864;6.102;2023-03-01T09:24:56;6.50;99.90
11093;DHT22;5600;50.864;6.102;2023-03-01T09:27:59;6.10;99.90
11093;DHT22;5600;50.864;6.102;2023-03-01T09:31:01;5.80;99.90
11093;DHT22;5600;50.864;6.102;2023-03-01T09:34:02;6.20;99.90
11093;DHT22;5600;50.864;6.102;2023-03-01T09:37:03;6.30;99.90
11093;DHT22;5600;50.864;6.102;2023-03-01T09:40:05;5.80;99.90
11093;DHT22;5600;50.864;6.102;2023-03-01T09:43:26;5.80;99.90
11093;DHT22;5600;50.864;6.102;2023-03-01T09:46:32;5.90;99.90
11093;DHT22;5600;50.864;6.102;2023-03-01T09:49:41;5.90;99.90
11093;DHT22;5600;50.864;6.102;2023-03-01T09:53:05;6.20;99.90
11093;DHT22;5600;50.864;6.102;2023-03-01T09:56:17;6.30;99.90
11093;DHT22;5600;50.864;6.102;2023-03-01T10:00:09;6.50;99.90
11093;DHT22;5600;50.864;6.102;2023-03-01T10:06:22;6.50;99.90
11093;DHT22;5600;50.864;6.102;2023-03-01T10:09:29;6.40;99.90
11093;DHT22;5600;50.864;6.102;2023-03-01T10:12:35;5.70;99.90
11093;DHT22;5600;50.864;6.102;2023-03-01T10:15:43;5.50;99.90
11093;DHT22;5600;50.864;6.102;2023-03-01T10:18:47;5.40;99.90
11093;DHT22;5600;50.864;6.102;2023-03-01T10:21:53;5.40;99.90
11093;DHT22;5600;50.864;6.102;2023-03-01T10:24:56;5.30;99.90
11093;DHT22;5600;50.864;6.102;2023-03-01T10:31:32;5.00;99.90
11093;DHT22;5600;50.864;6.102;2023-03-01T10:34:37;5.10;99.90
11093;DHT22;5600;50.864;6.102;2023-03-01T10:38:02;5.20;99.90
11093;DHT22;5600;50.864;6.102;2023-03-01T10:41:06;5.20;99.90
11093;DHT22;5600;50.864;6.102;2023-03-01T10:44:36;5.60;99.90
11093;DHT22;5600;50.864;6.102;2023-03-01T10:47:37;5.60;99.90
11093;DHT22;5600;50.864;6.102;2023-03-01T10:50:47;5.80;99.90
11093;DHT22;5600;50.864;6.102;2023-03-01T10:53:49;6.30;99.90
11093;DHT22;5600;50.864;6.102;2023-03-01T10:56:55;6.30;99.90
11093;DHT22;5600;50.864;6.102;2023-03-01T11:03:28;6.30;99.90
11093;DHT22;5600;50.864;6.102;2023-03-01T11:06:30;7.80;99.90
11093;DHT22;5600;50.864;6.102;2023-03-01T11:09:33;6.60;99.90
11093;DHT22;5600;50.864;6.102;2023-03-01T11:12:38;6.60;99.90
11093;DHT22;5600;50.864;6.102;2023-03-01T11:15:39;6.60;99.90
11093;DHT22;5600;50.864;6.102;2023-03-01T11:18:40;6.60;99.90
11093;DHT22;5600;50.864;6.102;2023-03-01T11:21:54;6.60;99.90
11093;DHT22;5600;50.864;6.102;2023-03-01T11:24:56;6.60;99.90
11093;DHT22;5600;50.864;6.102;2023-03-01T11:28:00;6.60;99.90
11093;DHT22;5600;50.864;6.102;2023-03-01T11:31:06;6.60;99.90
11093;DHT22;5600;50.864;6.102;2023-03-01T11:34:19;6.60;99.90
11093;DHT22;5600;50.864;6.102;2023-03-01T11:37:32;6.30;99.90
11093;DHT22;5600;50.864;6.102;2023-03-01T11:40:39;6.40;99.90
11093;DHT22;5600;50.864;6.102;2023-03-01T11:43:54;6.60;99.90
11093;DHT22;5600;50.864;6.102;2023-03-01T11:56:38;6.80;99.90
11093;DHT22;5600;50.864;6.102;2023-03-01T11:59:57;6.90;99.90
11093;DHT22;5600;50.864;6.102;2023-03-01T12:16:27;7.80;99.90
11093;DHT22;5600;50.864;6.102;2023-03-01T12:26:29;8.00;99.70
11093;DHT22;5600;50.864;6.102;2023-03-01T12:29:42;8.10;99.70
11093;DHT22;5600;50.864;6.102;2023-03-01T12:32:47;8.30;99.80
11093;DHT22;5600;50.864;6.102;2023-03-01T12:36:33;8.50;99.80
11093;DHT22;5600;50.864;6.102;2023-03-01T12:40:03;8.80;98.70
11093;DHT22;5600;50.864;6.102;2023-03-01T12:49:42;7.80;98.50
11093;DHT22;5600;50.864;6.102;2023-03-01T12:52:54;7.80;99.50
11093;DHT22;5600;50.864;6.102;2023-03-01T12:56:00;8.10;98.90
11093;DHT22;5600;50.864;6.102;2023-03-01T13:05:47;7.50;98.90
11093;DHT22;5600;50.864;6.102;2023-03-01T13:09:01;7.40;98.80
11093;DHT22;5600;50.864;6.102;2023-03-01T13:12:03;7.40;98.80
11093;DHT22;5600;50.864;6.102;2023-03-01T13:15:13;7.30;99.50
11093;DHT22;5600;50.864;6.102;2023-03-01T13:21:31;7.40;98.90
11093;DHT22;5600;50.864;6.102;2023-03-01T13:24:42;7.50;99.50
11093;DHT22;5600;50.864;6.102;2023-03-01T13:27:43;7.50;99.30
11093;DHT22;5600;50.864;6.102;2023-03-01T13:30:44;7.70;99.90
11093;DHT22;5600;50.864;6.102;2023-03-01T13:33:55;7.90;99.60
11093;DHT22;5600;50.864;6.102;2023-03-01T13:37:09;8.00;99.70
11093;DHT22;5600;50.864;6.102;2023-03-01T13:43:48;8.40;98.50
11093;DHT22;5600;50.864;6.102;2023-03-01T13:46:51;8.70;98.10
11093;DHT22;5600;50.864;6.102;2023-03-01T13:50:01;8.80;97.40
11093;DHT22;5600;50.864;6.102;2023-03-01T13:53:05;9.20;97.20
11093;DHT22;5600;50.864;6.102;2023-03-01T13:56:20;9.60;96.70
11093;DHT22;5600;50.864;6.102;2023-03-01T13:59:22;9.20;95.60
11093;DHT22;5600;50.864;6.102;2023-03-01T14:02:26;8.90;96.60
11093;DHT22;5600;50.864;6.102;2023-03-01T14:05:27;9.90;96.40
11093;DHT22;5600;50.864;6.102;2023-03-01T14:08:30;10.80;94.50
11093;DHT22;5600;50.864;6.102;2023-03-01T14:18:29;11.10;92.30
11093;DHT22;5600;50.864;6.102;2023-03-01T14:21:33;12.20;91.60
11093;DHT22;5600;50.864;6.102;2023-03-01T14:24:39;11.80;91.20
11093;DHT22;5600;50.864;6.102;2023-03-01T14:27:42;11.60;91.70
11093;DHT22;5600;50.864;6.102;2023-03-01T14:30:47;10.90;91.10
11093;DHT22;5600;50.864;6.102;2023-03-01T14:33:55;11.10;91.60
11093;DHT22;5600;50.864;6.102;2023-03-01T14:36:56;10.70;91.30
11093;DHT22;5600;50.864;6.102;2023-03-01T14:39:58;10.40;92.00
11093;DHT22;5600;50.864;6.102;2023-03-01T14:43:00;10.30;92.50
11093;DHT22;5600;50.864;6.102;2023-03-01T14:46:02;9.40;94.20
11093;DHT22;5600;50.864;6.102;2023-03-01T14:49:06;9.40;94.60
11093;DHT22;5600;50.864;6.102;2023-03-01T14:52:40;9.10;94.50
11093;DHT22;5600;50.864;6.102;2023-03-01T14:55:45;9.30;94.40
11093;DHT22;5600;50.864;6.102;2023-03-01T14:58:51;9.10;94.10
11093;DHT22;5600;50.864;6.102;2023-03-01T15:01:55;9.00;94.50
11093;DHT22;5600;50.864;6.102;2023-03-01T15:04:59;9.10;94.50
11093;DHT22;5600;50.864;6.102;2023-03-01T15:08:05;8.90;94.30
11093;DHT22;5600;50.864;6.102;2023-03-01T15:11:27;9.50;95.50
11093;DHT22;5600;50.864;6.102;2023-03-01T15:14:49;7.70;95.60
11093;DHT22;5600;50.864;6.102;2023-03-01T15:17:55;6.20;95.70
11093;DHT22;5600;50.864;6.102;2023-03-01T15:21:09;7.00;97.10
11093;DHT22;5600;50.864;6.102;2023-03-01T15:24:17;6.90;97.60
11093;DHT22;5600;50.864;6.102;2023-03-01T15:27:22;6.70;97.10
11093;DHT22;5600;50.864;6.102;2023-03-01T15:30:29;6.70;97.60
11093;DHT22;5600;50.864;6.102;2023-03-01T15:33:37;6.70;97.60
11093;DHT22;5600;50.864;6.102;2023-03-01T15:36:42;6.70;97.60
11093;DHT22;5600;50.864;6.102;2023-03-01T15:39:53;6.80;97.30
11093;DHT22;5600;50.864;6.102;2023-03-01T15:42:54;6.80;97.70
11093;DHT22;5600;50.864;6.102;2023-03-01T15:45:57;6.70;97.70
11093;DHT22;5600;50.864;6.102;2023-03-01T15:49:17;6.80;97.70
11093;DHT22;5600;50.864;6.102;2023-03-01T15:52:24;6.90;97.90
11093;DHT22;5600;50.864;6.102;2023-03-01T15:55:32;6.80;97.90
11093;DHT22;5600;50.864;6.102;2023-03-01T15:58:33;6.80;98.00
11093;DHT22;5600;50.864;6.102;2023-03-01T16:01:34;6.80;97.80
11093;DHT22;5600;50.864;6.102;2023-03-01T16:04:35;6.70;97.90
11093;DHT22;5600;50.864;6.102;2023-03-01T16:07:36;6.60;98.00
11093;DHT22;5600;50.864;6.102;2023-03-01T16:10:41;6.60;98.20
11093;DHT22;5600;50.864;6.102;2023-03-01T16:13:45;6.50;98.50
11093;DHT22;5600;50.864;6.102;2023-03-01T16:16:46;6.40;98.80
11093;DHT22;5600;50.864;6.102;2023-03-01T16:19:48;6.40;98.70
11093;DHT22;5600;50.864;6.102;2023-03-01T16:22:49;6.30;98.70
11093;DHT22;5600;50.864;6.102;2023-03-01T16:25:50;6.20;99.10
11093;DHT22;5600;50.864;6.102;2023-03-01T16:28:55;6.20;98.70
11093;DHT22;5600;50.864;6.102;2023-03-01T16:31:56;6.20;99.00
11093;DHT22;5600;50.864;6.102;2023-03-01T16:34:57;6.10;99.20
11093;DHT22;5600;50.864;6.102;2023-03-01T16:37:59;6.10;99.50
11093;DHT22;5600;50.864;6.102;2023-03-01T16:41:00;6.10;99.70
11093;DHT22;5600;50.864;6.102;2023-03-01T16:44:02;6.00;99.90
11093;DHT22;5600;50.864;6.102;2023-03-01T16:47:02;5.80;99.90
11093;DHT22;5600;50.864;6.102;2023-03-01T16:50:04;5.70;99.90
11093;DHT22;5600;50.864;6.102;2023-03-01T16:53:05;5.70;99.90
11093;DHT22;5600;50.864;6.102;2023-03-01T16:56:08;5.60;99.90
11093;DHT22;5600;50.864;6.102;2023-03-01T16:59:10;5.50;99.90
11093;DHT22;5600;50.864;6.102;2023-03-01T17:02:14;5.40;99.90
11093;DHT22;5600;50.864;6.102;2023-03-01T17:05:20;5.30;99.90
11093;DHT22;5600;50.864;6.102;2023-03-01T17:08:22;5.30;99.90
11093;DHT22;5600;50.864;6.102;2023-03-01T17:11:23;5.10;99.90
11093;DHT22;5600;50.864;6.102;2023-03-01T17:14:24;5.10;99.90
11093;DHT22;5600;50.864;6.102;2023-03-01T17:17:25;5.00;99.90
11093;DHT22;5600;50.864;6.102;2023-03-01T17:20:26;5.00;99.90
11093;DHT22;5600;50.864;6.102;2023-03-01T17:23:29;4.80;99.90
11093;DHT22;5600;50.864;6.102;2023-03-01T17:26:30;4.80;99.90
11093;DHT22;5600;50.864;6.102;2023-03-01T17:29:31;4.90;99.90
11093;DHT22;5600;50.864;6.102;2023-03-01T17:32:32;4.60;99.90
11093;DHT22;5600;50.864;6.102;2023-03-01T17:35:32;4.50;99.90
11093;DHT22;5600;50.864;6.102;2023-03-01T17:38:37;4.20;99.90
11093;DHT22;5600;50.864;6.102;2023-03-01T17:41:38;4.20;99.90
11093;DHT22;5600;50.864;6.102;2023-03-01T17:44:38;4.20;99.90
11093;DHT22;5600;50.864;6.102;2023-03-01T17:47:39;4.10;99.90
11093;DHT22;5600;50.864;6.102;2023-03-01T17:50:40;4.00;99.90
11093;DHT22;5600;50.864;6.102;2023-03-01T17:53:41;4.00;99.90
11093;DHT22;5600;50.864;6.102;2023-03-01T17:56:42;3.90;99.90
11093;DHT22;5600;50.864;6.102;2023-03-01T17:59:42;3.80;99.90
11093;DHT22;5600;50.864;6.102;2023-03-01T18:02:43;3.70;99.90
11093;DHT22;5600;50.864;6.102;2023-03-01T18:05:44;3.60;99.90
11093;DHT22;5600;50.864;6.102;2023-03-01T18:08:45;3.70;99.90
11093;DHT22;5600;50.864;6.102;2023-03-01T18:11:46;3.60;99.90
11093;DHT22;5600;50.864;6.102;2023-03-01T18:14:50;3.60;99.90
11093;DHT22;5600;50.864;6.102;2023-03-01T18:17:54;3.60;99.90
11093;DHT22;5600;50.864;6.102;2023-03-01T18:20:59;3.60;99.90
11093;DHT22;5600;50.864;6.102;2023-03-01T18:24:00;3.50;99.90
11093;DHT22;5600;50.864;6.102;2023-03-01T18:27:02;3.50;99.90
11093;DHT22;5600;50.864;6.102;2023-03-01T18:30:06;3.40;99.90
11093;DHT22;5600;50.864;6.102;2023-03-01T18:33:08;3.40;99.90
11093;DHT22;5600;50.864;6.102;2023-03-01T18:36:29;3.40;99.90
11093;DHT22;5600;50.864;6.102;2023-03-01T18:39:30;3.30;99.90
11093;DHT22;5600;50.864;6.102;2023-03-01T18:42:30;3.30;99.90
11093;DHT22;5600;50.864;6.102;2023-03-01T18:45:31;3.40;99.90
11093;DHT22;5600;50.864;6.102;2023-03-01T18:48:32;3.30;99.90
11093;DHT22;5600;50.864;6.102;2023-03-01T18:51:33;3.30;99.90
11093;DHT22;5600;50.864;6.102;2023-03-01T18:54:34;3.30;99.90
11093;DHT22;5600;50.864;6.102;2023-03-01T18:57:35;3.30;99.90
11093;DHT22;5600;50.864;6.102;2023-03-01T19:00:36;3.20;99.90
11093;DHT22;5600;50.864;6.102;2023-03-01T19:03:36;3.20;99.90
11093;DHT22;5600;50.864;6.102;2023-03-01T19:06:37;3.20;99.90
11093;DHT22;5600;50.864;6.102;2023-03-01T19:09:39;3.20;99.90
11093;DHT22;5600;50.864;6.102;2023-03-01T19:12:40;3.30;99.90
11093;DHT22;5600;50.864;6.102;2023-03-01T19:15:40;3.10;99.90
11093;DHT22;5600;50.864;6.102;2023-03-01T19:18:44;3.00;99.90
11093;DHT22;5600;50.864;6.102;2023-03-01T19:21:49;3.00;99.90
11093;DHT22;5600;50.864;6.102;2023-03-01T19:24:50;3.10;99.90
11093;DHT22;5600;50.864;6.102;2023-03-01T19:27:50;3.10;99.90
11093;DHT22;5600;50.864;6.102;2023-03-01T19:30:55;3.00;99.90
11093;DHT22;5600;50.864;6.102;2023-03-01T19:33:57;2.90;99.90
11093;DHT22;5600;50.864;6.102;2023-03-01T19:36:58;2.90;99.90
11093;DHT22;5600;50.864;6.102;2023-03-01T19:39:58;2.70;99.90
11093;DHT22;5600;50.864;6.102;2023-03-01T19:42:59;2.60;99.90
11093;DHT22;5600;50.864;6.102;2023-03-01T19:46:00;2.40;99.90
11093;DHT22;5600;50.864;6.102;2023-03-01T19:49:01;2.30;99.90
11093;DHT22;5600;50.864;6.102;2023-03-01T19:52:03;2.30;99.90
11093;DHT22;5600;50.864;6.102;2023-03-01T19:55:04;2.20;99.90
11093;DHT22;5600;50.864;6.102;2023-03-01T19:58:06;2.20;99.90
11093;DHT22;5600;50.864;6.102;2023-03-01T20:01:18;2.30;99.90
11093;DHT22;5600;50.864;6.102;2023-03-01T20:04:19;2.40;99.90
11093;DHT22;5600;50.864;6.102;2023-03-01T20:07:19;2.50;99.90
11093;DHT22;5600;50.864;6.102;2023-03-01T20:10:20;2.60;99.90
11093;DHT22;5600;50.864;6.102;2023-03-01T20:13:21;2.60;99.90
11093;DHT22;5600;50.864;6.102;2023-03-01T20:16:22;2.40;99.90
11093;DHT22;5600;50.864;6.102;2023-03-01T20:19:23;2.40;99.90
11093;DHT22;5600;50.864;6.102;2023-03-01T20:22:24;2.40;99.90
11093;DHT22;5600;50.864;6.102;2023-03-01T20:25:25;2.30;99.90
11093;DHT22;5600;50.864;6.102;2023-03-01T20:28:25;2.20;99.90
11093;DHT22;5600;50.864;6.102;2023-03-01T20:31:26;2.10;99.90
11093;DHT22;5600;50.864;6.102;2023-03-01T20:34:28;2.00;99.90
11093;DHT22;5600;50.864;6.102;2023-03-01T20:37:29;2.00;99.90
11093;DHT22;5600;50.864;6.102;2023-03-01T20:40:30;2.20;99.90
11093;DHT22;5600;50.864;6.102;2023-03-01T20:43:31;2.30;99.90
11093;DHT22;5600;50.864;6.102;2023-03-01T20:46:33;2.30;99.90
11093;DHT22;5600;50.864;6.102;2023-03-01T20:49:34;2.10;99.90
11093;DHT22;5600;50.864;6.102;2023-03-01T20:52:35;2.30;99.90
11093;DHT22;5600;50.864;6.102;2023-03-01T20:55:35;2.40;99.90
11093;DHT22;5600;50.864;6.102;2023-03-01T20:58:36;2.30;99.90
11093;DHT22;5600;50.864;6.102;2023-03-01T21:01:38;2.30;99.90
11093;DHT22;5600;50.864;6.102;2023-03-01T21:04:39;2.20;99.90
11093;DHT22;5600;50.864;6.102;2023-03-01T21:07:40;2.20;99.90
11093;DHT22;5600;50.864;6.102;2023-03-01T21:10:42;2.10;99.90
11093;DHT22;5600;50.864;6.102;2023-03-01T21:13:42;2.10;99.90
11093;DHT22;5600;50.864;6.102;2023-03-01T21:16:43;5.40;99.90
11093;DHT22;5600;50.864;6.102;2023-03-01T21:19:47;2.00;99.90
11093;DHT22;5600;50.864;6.102;2023-03-01T21:22:49;1.90;99.90
11093;DHT22;5600;50.864;6.102;2023-03-01T21:29:13;1.70;99.90
11093;DHT22;5600;50.864;6.102;2023-03-01T21:32:13;1.70;99.90
11093;DHT22;5600;50.864;6.102;2023-03-01T21:41:20;1.70;99.90
11093;DHT22;5600;50.864;6.102;2023-03-01T21:44:21;1.70;99.90
11093;DHT22;5600;50.864;6.102;2023-03-01T21:47:22;1.60;99.90
11093;DHT22;5600;50.864;6.102;2023-03-01T21:50:23;1.50;99.90
11093;DHT22;5600;50.864;6.102;2023-03-01T21:53:24;1.30;99.90
11093;DHT22;5600;50.864;6.102;2023-03-01T21:56:28;1.30;99.90
11093;DHT22;5600;50.864;6.102;2023-03-01T22:02:31;1.20;99.90
11093;DHT22;5600;50.864;6.102;2023-03-01T22:05:32;1.10;99.90
11093;DHT22;5600;50.864;6.102;2023-03-01T22:08:32;1.00;99.90
11093;DHT22;5600;50.864;6.102;2023-03-01T22:11:36;1.10;99.90
11093;DHT22;5600;50.864;6.102;2023-03-01T22:14:37;1.00;99.90
11093;DHT22;5600;50.864;6.102;2023-03-01T22:17:37;0.60;99.90
11093;DHT22;5600;50.864;6.102;2023-03-01T22:20:39;0.60;99.90
11093;DHT22;5600;50.864;6.102;2023-03-01T22:23:40;0.50;99.90
11093;DHT22;5600;50.864;6.102;2023-03-01T22:26:43;0.40;99.90
11093;DHT22;5600;50.864;6.102;2023-03-01T22:32:45;0.40;99.90
11093;DHT22;5600;50.864;6.102;2023-03-01T22:35:45;0.40;99.90
11093;DHT22;5600;50.864;6.102;2023-03-01T22:38:46;0.10;99.90
11093;DHT22;5600;50.864;6.102;2023-03-01T22:41:47;1.60;99.90
11093;DHT22;5600;50.864;6.102;2023-03-01T22:44:48;-0.10;99.90
11093;DHT22;5600;50.864;6.102;2023-03-01T22:47:49;-0.20;99.90
11093;DHT22;5600;50.864;6.102;2023-03-01T22:50:50;-0.40;99.90
11093;DHT22;5600;50.864;6.102;2023-03-01T22:53:51;-0.50;99.90
11093;DHT22;5600;50.864;6.102;2023-03-01T22:56:52;-0.60;99.90
11093;DHT22;5600;50.864;6.102;2023-03-01T22:59:53;-0.60;99.90
11093;DHT22;5600;50.864;6.102;2023-03-01T23:02:53;-0.60;99.90
11093;DHT22;5600;50.864;6.102;2023-03-01T23:05:54;-0.70;99.90
11093;DHT22;5600;50.864;6.102;2023-03-01T23:08:56;-0.80;99.90
11093;DHT22;5600;50.864;6.102;2023-03-01T23:11:59;-0.80;99.90
11093;DHT22;5600;50.864;6.102;2023-03-01T23:15:01;-0.80;99.90
11093;DHT22;5600;50.864;6.102;2023-03-01T23:18:01;-0.80;99.90
11093;DHT22;5600;50.864;6.102;2023-03-01T23:21:10;-0.90;99.90
11093;DHT22;5600;50.864;6.102;2023-03-01T23:24:17;-0.70;99.90
11093;DHT22;5600;50.864;6.102;2023-03-01T23:30:19;-0.10;99.90